Time;durP1;ratioP1;P1;durP2;ratioP2;P2;SDS_P1;SDS_P2;PMS_P1;PMS_P2;Temp;Humidity;BMP_temperature;BMP_pressure;BME280_temperature;BME280_humidity;BME280_pressure;Samples;Min_cycle;Max_cycle;Signal;HPM_P1;HPM_P2
2022/12/15 00:39:01;;;;;;;0.20;0.10;;;12.20;99.90;;;;;;21259961;27;20407;-75
2022/12/15 00:50:50;;;;;;;0.20;0.08;;;12.20;99.90;;;;;;21250441;27;20403;-76
2022/12/15 01:20:19;;;;;;;0.20;0.00;;;12.60;99.90;;;;;;21178012;27;20404;-77
2022/12/15 01:30:27;;;;;;;0.20;0.00;;;12.60;99.90;;;;;;21177702;27;20397;-76
2022/12/15 01:51:05;;;;;;;0.20;0.10;;;12.60;99.90;;;;;;21238216;27;20400;-76
2022/12/15 02:01:10;;;;;;;0.20;0.10;;;12.50;99.90;;;;;;21279979;27;20419;-77
2022/12/15 02:11:38;;;;;;;0.20;0.00;;;12.50;99.90;;;;;;21261595;27;20468;-76
2022/12/15 02:21:48;;;;;;;0.20;0.10;;;12.50;99.90;;;;;;21260336;27;21276;-75
2022/12/15 02:31:58;;;;;;;0.20;0.00;;;12.20;99.90;;;;;;21277226;27;20408;-76
2022/12/15 02:42:02;;;;;;;0.20;0.05;;;12.30;99.90;;;;;;21087592;28;20490;-75
2022/12/15 02:52:20;;;;;;;0.20;0.10;;;12.40;99.90;;;;;;21071561;28;21172;-75
2022/12/15 03:02:26;;;;;;;0.20;0.10;;;12.50;99.90;;;;;;21108086;28;20415;-74
2022/12/15 03:12:32;;;;;;;0.20;0.10;;;12.60;99.90;;;;;;21093179;28;20470;-75
2022/12/15 03:22:36;;;;;;;0.20;0.00;;;12.80;99.90;;;;;;21103154;28;20410;-75
2022/12/15 03:32:42;;;;;;;0.20;0.00;;;12.90;99.90;;;;;;21137888;27;20395;-75
2022/12/15 03:42:48;;;;;;;0.20;0.10;;;13.00;99.90;;;;;;21273383;27;20488;-76
2022/12/15 03:52:55;;;;;;;0.20;0.00;;;13.00;99.90;;;;;;21270184;27;20900;-75
2022/12/15 04:03:00;;;;;;;0.20;0.10;;;13.10;99.90;;;;;;21261800;27;20425;-77
2022/12/15 04:13:07;;;;;;;0.20;0.00;;;13.10;99.90;;;;;;21202180;27;20412;-77
2022/12/15 04:23:11;;;;;;;0.20;0.00;;;13.20;99.90;;;;;;21183303;27;20409;-77
2022/12/15 05:35:30;;;;;;;0.20;0.10;;;13.70;99.90;;;;;;21155566;27;20392;-77
2022/12/15 05:45:34;;;;;;;0.20;0.10;;;13.70;99.90;;;;;;21195177;27;20412;-77
2022/12/15 05:55:40;;;;;;;0.20;0.00;;;13.90;99.90;;;;;;21175252;27;20474;-77
2022/12/15 06:05:44;;;;;;;0.20;0.00;;;13.90;99.90;;;;;;21192845;27;20416;-72
2022/12/15 06:15:57;;;;;;;0.20;0.00;;;14.00;99.90;;;;;;21175052;27;20411;-78
2022/12/15 06:26:08;;;;;;;0.20;0.00;;;14.30;99.90;;;;;;21176072;27;20405;-74
2022/12/15 06:36:15;;;;;;;0.20;0.10;;;14.00;99.90;;;;;;21194695;28;20418;-74
2022/12/15 06:46:20;;;;;;;0.20;0.10;;;14.40;99.90;;;;;;21200335;27;20407;-79
2022/12/15 06:56:27;;;;;;;0.20;0.00;;;13.60;99.90;;;;;;21205808;27;21049;-72
2022/12/15 07:06:38;;;;;;;0.20;0.10;;;12.80;99.90;;;;;;21166291;27;20499;-76
2022/12/15 07:16:44;;;;;;;0.20;0.10;;;12.60;99.90;;;;;;21194239;27;20479;-82
2022/12/15 07:26:48;;;;;;;0.20;0.10;;;12.90;99.90;;;;;;21169316;27;20420;-79
2022/12/15 07:36:54;;;;;;;0.20;0.00;;;12.90;99.90;;;;;;21185208;27;20404;-72
2022/12/15 07:46:58;;;;;;;0.20;0.10;;;12.70;99.90;;;;;;21183329;27;20393;-73
2022/12/15 07:57:04;;;;;;;0.20;0.10;;;13.10;99.90;;;;;;21183478;27;20497;-74
2022/12/15 08:07:09;;;;;;;0.20;0.00;;;13.20;99.90;;;;;;21181407;27;20740;-75
2022/12/15 08:17:14;;;;;;;0.20;0.10;;;13.20;99.90;;;;;;21199963;27;20413;-75
2022/12/15 08:27:19;;;;;;;0.20;0.10;;;13.20;99.90;;;;;;21200776;27;20423;-78
2022/12/15 08:37:25;;;;;;;0.20;0.10;;;13.10;99.90;;;;;;21180890;27;20412;-75
2022/12/15 08:47:29;;;;;;;0.20;0.00;;;13.40;99.90;;;;;;21182061;27;20401;-74
2022/12/15 08:57:35;;;;;;;0.20;0.10;;;13.50;99.90;;;;;;21198035;27;20931;-70
2022/12/15 09:07:38;;;;;;;0.20;0.00;;;13.50;99.90;;;;;;21179815;27;20401;-76
2022/12/15 09:17:44;;;;;;;0.20;0.00;;;13.70;99.90;;;;;;21128782;27;20403;-75
2022/12/15 09:27:47;;;;;;;0.20;0.10;;;13.60;99.90;;;;;;21111780;28;20391;-77
2022/12/15 09:37:53;;;;;;;0.20;0.00;;;14.20;99.90;;;;;;21089768;28;20584;-76
2022/12/15 09:48:01;;;;;;;0.20;0.10;;;14.70;99.90;;;;;;21053192;28;20396;-77
2022/12/15 09:58:17;;;;;;;0.20;0.10;;;15.20;99.90;;;;;;21005002;28;20510;-76
2022/12/15 10:08:23;;;;;;;0.20;0.10;;;15.40;99.90;;;;;;21005770;28;20403;-73
2022/12/15 10:18:33;;;;;;;0.77;0.65;;;15.50;99.90;;;;;;21083360;28;21029;-76
2022/12/15 10:29:03;;;;;;;0.20;0.00;;;15.90;99.90;;;;;;21071816;28;21136;-74
2022/12/15 10:39:08;;;;;;;0.20;0.00;;;16.60;99.90;;;;;;21106589;28;20431;-77
2022/12/15 10:49:24;;;;;;;0.20;0.00;;;17.00;99.90;;;;;;21105501;28;21304;-75
2022/12/15 10:59:32;;;;;;;0.20;0.00;;;17.70;99.90;;;;;;21085731;28;20583;-74
2022/12/15 11:09:38;;;;;;;0.20;0.00;;;18.70;99.90;;;;;;21123859;27;20802;-73
2022/12/15 11:19:50;;;;;;;0.20;0.03;;;19.60;99.90;;;;;;21155167;28;20405;-75
2022/12/15 11:30:11;;;;;;;0.20;0.00;;;18.20;99.90;;;;;;21172556;27;20522;-78
2022/12/15 11:40:34;;;;;;;0.20;0.00;;;17.50;99.90;;;;;;21153492;27;20407;-77
2022/12/15 11:50:49;;;;;;;0.20;0.10;;;18.70;99.90;;;;;;21101242;28;20386;-75
2022/12/15 12:01:04;;;;;;;0.20;0.05;;;19.60;99.90;;;;;;21118226;28;20414;-73
2022/12/15 12:11:13;;;;;;;0.20;0.00;;;20.40;99.90;;;;;;21116695;28;20904;-73
2022/12/15 12:21:23;;;;;;;0.20;0.00;;;20.70;99.90;;;;;;21097359;28;20417;-76
2022/12/15 12:31:39;;;;;;;0.20;0.00;;;20.70;99.90;;;;;;21079853;28;20478;-74
2022/12/15 12:41:49;;;;;;;0.20;0.00;;;20.80;99.90;;;;;;21112705;28;21260;-74
2022/12/15 12:51:57;;;;;;;0.20;0.00;;;20.90;99.90;;;;;;21148991;27;20389;-75
2022/12/15 13:02:46;;;;;;;0.20;0.00;;;20.90;99.90;;;;;;21197989;27;20401;-71
2022/12/15 13:12:54;;;;;;;0.20;0.00;;;20.50;99.90;;;;;;21155512;27;20393;-74
2022/12/15 13:23:31;;;;;;;0.20;0.00;;;20.90;99.90;;;;;;21181356;27;20420;-73
2022/12/15 13:33:45;;;;;;;0.20;0.00;;;20.70;99.90;;;;;;21196373;27;20885;-74
2022/12/15 13:43:53;;;;;;;0.20;0.00;;;20.40;99.90;;;;;;21130105;27;20490;-78
2022/12/15 13:54:03;;;;;;;0.20;0.00;;;20.50;99.90;;;;;;21108093;28;20453;-74
2022/12/15 14:04:14;;;;;;;0.20;0.00;;;20.50;99.90;;;;;;21108803;28;20438;-76
2022/12/15 14:14:22;;;;;;;0.20;0.00;;;21.50;99.90;;;;;;21086728;28;20399;-77
2022/12/15 14:24:29;;;;;;;0.20;0.00;;;21.80;99.90;;;;;;21085363;28;21367;-73
2022/12/15 14:34:46;;;;;;;0.20;0.00;;;21.50;99.90;;;;;;21084290;28;20757;-76
2022/12/15 14:44:54;;;;;;;0.20;0.00;;;20.20;99.90;;;;;;21066898;28;20525;-72
2022/12/15 14:55:04;;;;;;;0.20;0.00;;;19.10;99.90;;;;;;21103982;27;20416;-77
2022/12/15 15:05:26;;;;;;;0.20;0.00;;;18.60;99.90;;;;;;21186415;27;20408;-73
2022/12/15 15:15:32;;;;;;;0.20;0.00;;;17.60;99.90;;;;;;21181973;27;20409;-74
2022/12/15 15:25:38;;;;;;;0.20;0.00;;;18.10;99.90;;;;;;21191782;27;20408;-74
2022/12/15 15:35:49;;;;;;;0.20;0.00;;;18.80;99.90;;;;;;21194077;27;20385;-73
2022/12/15 15:46:00;;;;;;;0.20;0.10;;;17.30;99.90;;;;;;21176040;27;20411;-75
2022/12/15 15:56:09;;;;;;;0.20;0.00;;;16.90;99.90;;;;;;21176283;27;20567;-75
2022/12/15 16:06:16;;;;;;;0.20;0.10;;;16.50;99.90;;;;;;21195945;27;20417;-75
2022/12/15 16:16:24;;;;;;;0.20;0.00;;;16.20;99.90;;;;;;21175369;27;20393;-73
2022/12/15 16:26:30;;;;;;;0.20;0.10;;;16.00;99.90;;;;;;21194203;27;20408;-74
2022/12/15 16:36:35;;;;;;;0.20;0.10;;;15.80;99.90;;;;;;21153369;27;20405;-75
2022/12/15 16:46:39;;;;;;;0.20;0.00;;;15.70;99.90;;;;;;21123586;27;20908;-74
2022/12/15 16:56:45;;;;;;;0.20;0.00;;;15.50;99.90;;;;;;21174189;27;20389;-79
2022/12/15 17:06:49;;;;;;;0.20;0.10;;;15.50;99.90;;;;;;21154297;27;20405;-75
2022/12/15 17:16:54;;;;;;;0.20;0.10;;;15.50;99.90;;;;;;21185571;27;20768;-76
2022/12/15 17:26:59;;;;;;;0.20;0.10;;;15.40;99.90;;;;;;21169372;27;20405;-75
2022/12/15 17:37:06;;;;;;;0.20;0.10;;;15.40;99.90;;;;;;21150284;27;20503;-74
2022/12/15 17:47:10;;;;;;;0.20;0.00;;;15.30;99.90;;;;;;21195362;27;20489;-75
2022/12/15 17:57:16;;;;;;;0.20;0.10;;;15.20;99.90;;;;;;21192775;27;20393;-72
2022/12/15 18:07:22;;;;;;;0.20;0.00;;;15.00;99.90;;;;;;21193458;27;20426;-67
2022/12/15 18:17:27;;;;;;;0.20;0.00;;;14.90;99.90;;;;;;21120583;27;20426;-75
2022/12/15 18:27:31;;;;;;;0.20;0.00;;;14.80;99.90;;;;;;21121896;27;20521;-77
2022/12/15 18:37:36;;;;;;;0.20;0.00;;;14.80;99.90;;;;;;21071509;28;20472;-74
2022/12/15 18:47:41;;;;;;;0.20;0.10;;;14.70;99.90;;;;;;21020695;28;20414;-75
2022/12/15 18:57:46;;;;;;;0.20;0.00;;;14.70;99.90;;;;;;21040102;28;20408;-75
2022/12/15 19:07:51;;;;;;;0.40;0.40;;;14.80;99.90;;;;;;21036706;28;20404;-75
2022/12/15 19:28:19;;;;;;;0.20;0.10;;;14.00;99.90;;;;;;21186175;27;20887;-75
2022/12/15 19:38:27;;;;;;;0.20;0.00;;;13.70;99.90;;;;;;21253722;27;20403;-77
2022/12/15 19:48:31;;;;;;;0.20;0.00;;;13.70;99.90;;;;;;21265667;27;20401;-69
2022/12/15 19:58:37;;;;;;;0.20;0.00;;;13.50;99.90;;;;;;21265172;27;20537;-77
2022/12/15 20:08:44;;;;;;;0.20;0.10;;;13.10;99.90;;;;;;21285194;27;20388;-76
2022/12/15 20:18:52;;;;;;;0.20;0.10;;;12.70;99.90;;;;;;21266923;27;20395;-77
2022/12/15 20:28:56;;;;;;;0.20;0.00;;;12.40;99.90;;;;;;21282994;27;20407;-77
2022/12/15 20:39:02;;;;;;;0.20;0.00;;;12.20;99.90;;;;;;21218675;27;20404;-76
2022/12/15 20:49:13;;;;;;;0.20;0.10;;;12.00;99.90;;;;;;21190709;27;20428;-75
2022/12/15 20:59:19;;;;;;;0.20;0.10;;;12.10;99.90;;;;;;21184395;27;20756;-76
2022/12/15 21:09:24;;;;;;;0.20;0.03;;;12.30;99.90;;;;;;21190903;27;20492;-76
2022/12/15 21:19:29;;;;;;;0.20;0.10;;;12.90;99.90;;;;;;21181648;27;20895;-73
2022/12/15 21:29:35;;;;;;;0.20;0.00;;;13.10;99.90;;;;;;21202349;27;20401;-77
2022/12/15 21:39:40;;;;;;;0.20;0.10;;;13.50;99.90;;;;;;21191013;27;20849;-78
2022/12/15 21:49:44;;;;;;;0.20;0.10;;;13.60;99.90;;;;;;21229965;27;20403;-78
2022/12/15 21:59:50;;;;;;;0.20;0.10;;;13.40;99.90;;;;;;21205810;27;20407;-79
2022/12/15 22:09:54;;;;;;;0.20;0.00;;;13.60;99.90;;;;;;21227253;27;20890;-79
2022/12/15 22:19:59;;;;;;;0.20;0.00;;;13.90;99.90;;;;;;21173236;27;20409;-81
2022/12/15 22:30:03;;;;;;;0.20;0.10;;;14.10;99.90;;;;;;21216986;27;20410;-80
2022/12/15 22:40:10;;;;;;;0.20;0.10;;;14.20;99.90;;;;;;21183173;27;20393;-79
2022/12/15 22:50:17;;;;;;;0.20;0.10;;;14.40;99.90;;;;;;21194355;27;20455;-79
2022/12/15 23:00:23;;;;;;;0.20;0.10;;;14.30;99.90;;;;;;21174933;27;20424;-80
2022/12/15 23:20:50;;;;;;;0.20;0.10;;;14.20;99.90;;;;;;21205016;27;20506;-79
2022/12/15 23:30:54;;;;;;;0.20;0.00;;;14.10;99.90;;;;;;21183994;27;20400;-80
2022/12/15 23:41:00;;;;;;;0.20;0.10;;;14.10;99.90;;;;;;21200957;27;20574;-79
2022/12/15 23:51:06;;;;;;;0.20;0.10;;;14.20;99.90;;;;;;21221692;27;20400;-78
